sensor_id;sensor_type;location;lat;lon;timestamp;P1;durP1;ratioP1;P2;durP2;ratioP2
24715;SDS011;12822;50.124;8.678;2023-07-20T00:01:13;6.95;;;2.70;;
24715;SDS011;12822;50.124;8.678;2023-07-20T00:03:39;4.43;;;2.38;;
24715;SDS011;12822;50.124;8.678;2023-07-20T00:06:06;4.32;;;2.00;;
24715;SDS011;12822;50.124;8.678;2023-07-20T00:08:32;6.80;;;2.30;;
24715;SDS011;12822;50.124;8.678;2023-07-20T00:10:58;9.43;;;2.72;;
24715;SDS011;12822;50.124;8.678;2023-07-20T00:13:24;7.50;;;2.17;;
24715;SDS011;12822;50.124;8.678;2023-07-20T00:15:50;4.88;;;2.40;;
24715;SDS011;12822;50.124;8.678;2023-07-20T00:18:16;7.30;;;2.53;;
24715;SDS011;12822;50.124;8.678;2023-07-20T00:20:46;9.77;;;2.60;;
24715;SDS011;12822;50.124;8.678;2023-07-20T00:23:12;8.73;;;2.33;;
24715;SDS011;12822;50.124;8.678;2023-07-20T00:25:38;11.18;;;2.80;;
24715;SDS011;12822;50.124;8.678;2023-07-20T00:28:04;8.85;;;2.67;;
24715;SDS011;12822;50.124;8.678;2023-07-20T00:30:30;6.35;;;2.40;;
24715;SDS011;12822;50.124;8.678;2023-07-20T00:32:56;7.45;;;2.50;;
24715;SDS011;12822;50.124;8.678;2023-07-20T00:35:22;4.25;;;2.47;;
24715;SDS011;12822;50.124;8.678;2023-07-20T00:37:48;7.35;;;2.70;;
24715;SDS011;12822;50.124;8.678;2023-07-20T00:40:14;7.65;;;2.67;;
24715;SDS011;12822;50.124;8.678;2023-07-20T00:42:40;7.00;;;2.40;;
24715;SDS011;12822;50.124;8.678;2023-07-20T00:45:06;4.72;;;2.65;;
24715;SDS011;12822;50.124;8.678;2023-07-20T00:47:32;9.98;;;2.65;;
24715;SDS011;12822;50.124;8.678;2023-07-20T00:49:58;6.78;;;2.30;;
24715;SDS011;12822;50.124;8.678;2023-07-20T00:52:24;11.48;;;2.63;;
24715;SDS011;12822;50.124;8.678;2023-07-20T00:54:51;8.00;;;2.40;;
24715;SDS011;12822;50.124;8.678;2023-07-20T00:57:21;5.40;;;2.75;;
24715;SDS011;12822;50.124;8.678;2023-07-20T00:59:48;10.60;;;2.80;;
24715;SDS011;12822;50.124;8.678;2023-07-20T01:02:14;6.10;;;2.53;;
24715;SDS011;12822;50.124;8.678;2023-07-20T01:04:40;5.90;;;2.60;;
24715;SDS011;12822;50.124;8.678;2023-07-20T01:07:10;5.75;;;2.63;;
24715;SDS011;12822;50.124;8.678;2023-07-20T01:12:18;5.47;;;2.60;;
24715;SDS011;12822;50.124;8.678;2023-07-20T01:14:48;5.40;;;2.60;;
24715;SDS011;12822;50.124;8.678;2023-07-20T01:17:14;6.35;;;2.47;;
24715;SDS011;12822;50.124;8.678;2023-07-20T01:19:40;8.68;;;2.78;;
24715;SDS011;12822;50.124;8.678;2023-07-20T01:25:07;7.00;;;2.53;;
24715;SDS011;12822;50.124;8.678;2023-07-20T01:32:44;7.82;;;2.88;;
24715;SDS011;12822;50.124;8.678;2023-07-20T01:35:11;10.68;;;2.90;;
24715;SDS011;12822;50.124;8.678;2023-07-20T01:37:39;7.45;;;2.53;;
24715;SDS011;12822;50.124;8.678;2023-07-20T01:40:09;6.13;;;3.03;;
24715;SDS011;12822;50.124;8.678;2023-07-20T01:42:36;8.68;;;2.90;;
24715;SDS011;12822;50.124;8.678;2023-07-20T01:45:02;8.70;;;2.90;;
24715;SDS011;12822;50.124;8.678;2023-07-20T01:47:28;9.55;;;2.83;;
24715;SDS011;12822;50.124;8.678;2023-07-20T01:49:54;7.22;;;2.53;;
24715;SDS011;12822;50.124;8.678;2023-07-20T01:52:20;8.52;;;2.78;;
24715;SDS011;12822;50.124;8.678;2023-07-20T01:54:46;7.13;;;2.85;;
24715;SDS011;12822;50.124;8.678;2023-07-20T01:57:11;8.18;;;2.53;;
24715;SDS011;12822;50.124;8.678;2023-07-20T01:59:38;5.65;;;2.80;;
24715;SDS011;12822;50.124;8.678;2023-07-20T02:02:04;5.18;;;2.60;;
24715;SDS011;12822;50.124;8.678;2023-07-20T02:04:30;9.45;;;3.05;;
24715;SDS011;12822;50.124;8.678;2023-07-20T02:06:55;10.43;;;2.70;;
24715;SDS011;12822;50.124;8.678;2023-07-20T02:09:21;12.82;;;3.05;;
24715;SDS011;12822;50.124;8.678;2023-07-20T02:11:47;8.57;;;2.63;;
24715;SDS011;12822;50.124;8.678;2023-07-20T02:14:13;6.90;;;3.00;;
24715;SDS011;12822;50.124;8.678;2023-07-20T02:16:39;8.90;;;3.13;;
24715;SDS011;12822;50.124;8.678;2023-07-20T02:19:05;9.23;;;3.10;;
24715;SDS011;12822;50.124;8.678;2023-07-20T02:21:32;7.72;;;2.90;;
24715;SDS011;12822;50.124;8.678;2023-07-20T02:23:58;4.93;;;2.65;;
24715;SDS011;12822;50.124;8.678;2023-07-20T02:26:25;10.80;;;3.30;;
24715;SDS011;12822;50.124;8.678;2023-07-20T02:28:51;10.88;;;3.13;;
24715;SDS011;12822;50.124;8.678;2023-07-20T02:31:17;5.78;;;2.50;;
24715;SDS011;12822;50.124;8.678;2023-07-20T02:33:42;8.57;;;3.10;;
24715;SDS011;12822;50.124;8.678;2023-07-20T02:36:08;7.85;;;2.65;;
24715;SDS011;12822;50.124;8.678;2023-07-20T02:38:34;7.93;;;2.67;;
24715;SDS011;12822;50.124;8.678;2023-07-20T02:41:00;9.02;;;3.10;;
24715;SDS011;12822;50.124;8.678;2023-07-20T02:43:27;5.50;;;2.50;;
24715;SDS011;12822;50.124;8.678;2023-07-20T02:45:53;9.70;;;2.67;;
24715;SDS011;12822;50.124;8.678;2023-07-20T02:48:19;9.93;;;3.22;;
24715;SDS011;12822;50.124;8.678;2023-07-20T02:50:45;9.55;;;3.15;;
24715;SDS011;12822;50.124;8.678;2023-07-20T02:53:11;10.70;;;3.33;;
24715;SDS011;12822;50.124;8.678;2023-07-20T02:55:37;9.68;;;2.95;;
24715;SDS011;12822;50.124;8.678;2023-07-20T02:58:03;6.13;;;2.83;;
24715;SDS011;12822;50.124;8.678;2023-07-20T03:00:29;8.82;;;3.15;;
24715;SDS011;12822;50.124;8.678;2023-07-20T03:02:55;9.75;;;2.95;;
24715;SDS011;12822;50.124;8.678;2023-07-20T03:05:22;6.15;;;2.63;;
24715;SDS011;12822;50.124;8.678;2023-07-20T03:07:52;6.30;;;3.08;;
24715;SDS011;12822;50.124;8.678;2023-07-20T03:10:18;10.65;;;2.85;;
24715;SDS011;12822;50.124;8.678;2023-07-20T03:12:44;11.18;;;3.28;;
24715;SDS011;12822;50.124;8.678;2023-07-20T03:15:10;9.60;;;2.83;;
24715;SDS011;12822;50.124;8.678;2023-07-20T03:17:36;8.60;;;2.53;;
24715;SDS011;12822;50.124;8.678;2023-07-20T03:20:02;12.40;;;3.33;;
24715;SDS011;12822;50.124;8.678;2023-07-20T03:22:28;11.02;;;2.70;;
24715;SDS011;12822;50.124;8.678;2023-07-20T03:24:54;7.55;;;3.00;;
24715;SDS011;12822;50.124;8.678;2023-07-20T03:27:20;3.95;;;2.70;;
24715;SDS011;12822;50.124;8.678;2023-07-20T03:29:46;7.75;;;2.97;;
24715;SDS011;12822;50.124;8.678;2023-07-20T03:32:12;5.68;;;2.80;;
24715;SDS011;12822;50.124;8.678;2023-07-20T03:34:38;7.40;;;3.20;;
24715;SDS011;12822;50.124;8.678;2023-07-20T03:37:04;7.13;;;3.05;;
24715;SDS011;12822;50.124;8.678;2023-07-20T03:39:30;9.00;;;2.90;;
24715;SDS011;12822;50.124;8.678;2023-07-20T03:41:57;8.40;;;2.90;;
24715;SDS011;12822;50.124;8.678;2023-07-20T03:44:24;7.25;;;3.05;;
24715;SDS011;12822;50.124;8.678;2023-07-20T03:46:50;6.97;;;3.15;;
24715;SDS011;12822;50.124;8.678;2023-07-20T03:49:16;9.07;;;2.83;;
24715;SDS011;12822;50.124;8.678;2023-07-20T03:51:43;7.93;;;3.20;;
24715;SDS011;12822;50.124;8.678;2023-07-20T03:54:09;10.95;;;3.00;;
24715;SDS011;12822;50.124;8.678;2023-07-20T03:56:35;8.20;;;3.22;;
24715;SDS011;12822;50.124;8.678;2023-07-20T03:59:01;10.52;;;3.30;;
24715;SDS011;12822;50.124;8.678;2023-07-20T04:01:27;8.40;;;3.20;;
24715;SDS011;12822;50.124;8.678;2023-07-20T04:03:53;9.93;;;3.58;;
24715;SDS011;12822;50.124;8.678;2023-07-20T04:06:19;6.78;;;2.80;;
24715;SDS011;12822;50.124;8.678;2023-07-20T04:08:45;5.88;;;2.42;;
24715;SDS011;12822;50.124;8.678;2023-07-20T04:11:12;9.20;;;3.25;;
24715;SDS011;12822;50.124;8.678;2023-07-20T04:13:38;6.75;;;2.95;;
24715;SDS011;12822;50.124;8.678;2023-07-20T04:16:04;8.05;;;2.97;;
24715;SDS011;12822;50.124;8.678;2023-07-20T04:18:30;7.32;;;2.88;;
24715;SDS011;12822;50.124;8.678;2023-07-20T04:20:56;5.57;;;2.70;;
24715;SDS011;12822;50.124;8.678;2023-07-20T04:23:22;8.85;;;2.90;;
24715;SDS011;12822;50.124;8.678;2023-07-20T04:25:48;7.60;;;2.90;;
24715;SDS011;12822;50.124;8.678;2023-07-20T04:28:14;12.48;;;3.22;;
24715;SDS011;12822;50.124;8.678;2023-07-20T04:30:42;5.95;;;3.20;;
24715;SDS011;12822;50.124;8.678;2023-07-20T04:33:08;6.78;;;3.10;;
24715;SDS011;12822;50.124;8.678;2023-07-20T04:35:47;9.07;;;3.30;;
24715;SDS011;12822;50.124;8.678;2023-07-20T04:38:13;8.32;;;3.00;;
24715;SDS011;12822;50.124;8.678;2023-07-20T04:40:46;6.53;;;3.17;;
24715;SDS011;12822;50.124;8.678;2023-07-20T04:43:12;8.80;;;3.30;;
24715;SDS011;12822;50.124;8.678;2023-07-20T04:45:38;7.50;;;3.70;;
24715;SDS011;12822;50.124;8.678;2023-07-20T04:48:11;8.70;;;3.42;;
24715;SDS011;12822;50.124;8.678;2023-07-20T04:50:38;10.18;;;3.55;;
24715;SDS011;12822;50.124;8.678;2023-07-20T04:53:04;10.90;;;3.58;;
24715;SDS011;12822;50.124;8.678;2023-07-20T04:55:30;8.85;;;3.42;;
24715;SDS011;12822;50.124;8.678;2023-07-20T04:57:58;9.30;;;3.38;;
24715;SDS011;12822;50.124;8.678;2023-07-20T05:00:25;11.95;;;3.55;;
24715;SDS011;12822;50.124;8.678;2023-07-20T05:02:51;14.25;;;3.85;;
24715;SDS011;12822;50.124;8.678;2023-07-20T05:05:17;10.80;;;3.30;;
24715;SDS011;12822;50.124;8.678;2023-07-20T05:07:43;6.63;;;3.10;;
24715;SDS011;12822;50.124;8.678;2023-07-20T05:10:09;11.32;;;2.97;;
24715;SDS011;12822;50.124;8.678;2023-07-20T05:12:35;6.55;;;3.45;;
24715;SDS011;12822;50.124;8.678;2023-07-20T05:15:02;8.65;;;3.70;;
24715;SDS011;12822;50.124;8.678;2023-07-20T05:17:28;12.90;;;3.88;;
24715;SDS011;12822;50.124;8.678;2023-07-20T05:19:54;9.63;;;3.40;;
24715;SDS011;12822;50.124;8.678;2023-07-20T05:22:20;9.75;;;3.65;;
24715;SDS011;12822;50.124;8.678;2023-07-20T05:24:46;7.38;;;3.20;;
24715;SDS011;12822;50.124;8.678;2023-07-20T05:27:12;15.43;;;3.90;;
24715;SDS011;12822;50.124;8.678;2023-07-20T05:29:43;9.48;;;3.70;;
24715;SDS011;12822;50.124;8.678;2023-07-20T05:32:09;9.23;;;3.80;;
24715;SDS011;12822;50.124;8.678;2023-07-20T05:34:35;8.52;;;3.20;;
24715;SDS011;12822;50.124;8.678;2023-07-20T05:37:01;12.57;;;3.75;;
24715;SDS011;12822;50.124;8.678;2023-07-20T05:39:27;10.98;;;3.92;;
24715;SDS011;12822;50.124;8.678;2023-07-20T05:41:53;8.18;;;3.50;;
24715;SDS011;12822;50.124;8.678;2023-07-20T05:44:19;10.75;;;3.40;;
24715;SDS011;12822;50.124;8.678;2023-07-20T05:46:45;9.57;;;3.25;;
24715;SDS011;12822;50.124;8.678;2023-07-20T05:49:11;9.40;;;3.45;;
24715;SDS011;12822;50.124;8.678;2023-07-20T05:51:37;10.32;;;3.38;;
24715;SDS011;12822;50.124;8.678;2023-07-20T05:54:03;6.70;;;3.08;;
24715;SDS011;12822;50.124;8.678;2023-07-20T05:56:29;9.75;;;3.05;;
24715;SDS011;12822;50.124;8.678;2023-07-20T05:58:55;10.85;;;3.25;;
24715;SDS011;12822;50.124;8.678;2023-07-20T06:01:21;8.77;;;3.03;;
24715;SDS011;12822;50.124;8.678;2023-07-20T06:03:47;8.85;;;3.33;;
24715;SDS011;12822;50.124;8.678;2023-07-20T06:06:13;8.40;;;3.22;;
24715;SDS011;12822;50.124;8.678;2023-07-20T06:08:40;10.45;;;3.42;;
24715;SDS011;12822;50.124;8.678;2023-07-20T06:11:05;6.00;;;3.15;;
24715;SDS011;12822;50.124;8.678;2023-07-20T06:13:31;6.55;;;3.10;;
24715;SDS011;12822;50.124;8.678;2023-07-20T06:15:58;9.02;;;3.10;;
24715;SDS011;12822;50.124;8.678;2023-07-20T06:18:23;8.25;;;2.88;;
24715;SDS011;12822;50.124;8.678;2023-07-20T06:20:50;10.00;;;3.55;;
24715;SDS011;12822;50.124;8.678;2023-07-20T06:23:17;7.68;;;2.97;;
24715;SDS011;12822;50.124;8.678;2023-07-20T06:25:43;8.38;;;2.92;;
24715;SDS011;12822;50.124;8.678;2023-07-20T06:28:09;9.02;;;3.33;;
24715;SDS011;12822;50.124;8.678;2023-07-20T06:30:35;6.93;;;3.35;;
24715;SDS011;12822;50.124;8.678;2023-07-20T06:33:01;8.20;;;2.83;;
24715;SDS011;12822;50.124;8.678;2023-07-20T06:35:27;9.15;;;2.78;;
24715;SDS011;12822;50.124;8.678;2023-07-20T06:37:53;9.57;;;3.25;;
24715;SDS011;12822;50.124;8.678;2023-07-20T06:40:19;8.90;;;2.80;;
24715;SDS011;12822;50.124;8.678;2023-07-20T06:42:45;8.90;;;2.88;;
24715;SDS011;12822;50.124;8.678;2023-07-20T06:45:11;6.57;;;2.80;;
24715;SDS011;12822;50.124;8.678;2023-07-20T06:47:38;7.10;;;2.47;;
24715;SDS011;12822;50.124;8.678;2023-07-20T06:50:05;6.18;;;2.40;;
24715;SDS011;12822;50.124;8.678;2023-07-20T06:52:31;10.15;;;3.05;;
24715;SDS011;12822;50.124;8.678;2023-07-20T06:54:57;11.25;;;2.85;;
24715;SDS011;12822;50.124;8.678;2023-07-20T06:57:23;5.03;;;2.97;;
24715;SDS011;12822;50.124;8.678;2023-07-20T06:59:49;6.65;;;2.53;;
24715;SDS011;12822;50.124;8.678;2023-07-20T07:02:15;9.88;;;2.72;;
24715;SDS011;12822;50.124;8.678;2023-07-20T07:04:41;9.90;;;2.85;;
24715;SDS011;12822;50.124;8.678;2023-07-20T07:07:08;8.93;;;2.78;;
24715;SDS011;12822;50.124;8.678;2023-07-20T07:09:35;4.72;;;2.78;;
24715;SDS011;12822;50.124;8.678;2023-07-20T07:12:01;6.00;;;2.60;;
24715;SDS011;12822;50.124;8.678;2023-07-20T07:14:27;5.40;;;2.95;;
24715;SDS011;12822;50.124;8.678;2023-07-20T07:16:53;7.40;;;2.72;;
24715;SDS011;12822;50.124;8.678;2023-07-20T07:19:19;8.65;;;2.75;;
24715;SDS011;12822;50.124;8.678;2023-07-20T07:21:45;6.10;;;2.63;;
24715;SDS011;12822;50.124;8.678;2023-07-20T07:24:11;5.63;;;2.50;;
24715;SDS011;12822;50.124;8.678;2023-07-20T07:26:37;6.13;;;2.38;;
24715;SDS011;12822;50.124;8.678;2023-07-20T07:29:04;5.13;;;2.75;;
24715;SDS011;12822;50.124;8.678;2023-07-20T07:31:30;6.55;;;2.65;;
24715;SDS011;12822;50.124;8.678;2023-07-20T07:33:56;7.85;;;3.97;;
24715;SDS011;12822;50.124;8.678;2023-07-20T07:36:22;8.77;;;3.40;;
24715;SDS011;12822;50.124;8.678;2023-07-20T07:38:50;7.22;;;3.08;;
24715;SDS011;12822;50.124;8.678;2023-07-20T07:41:16;9.52;;;2.80;;
24715;SDS011;12822;50.124;8.678;2023-07-20T07:43:42;34.50;;;7.35;;
24715;SDS011;12822;50.124;8.678;2023-07-20T07:46:08;7.38;;;3.28;;
24715;SDS011;12822;50.124;8.678;2023-07-20T07:48:34;13.48;;;2.85;;
24715;SDS011;12822;50.124;8.678;2023-07-20T07:51:00;5.32;;;1.98;;
24715;SDS011;12822;50.124;8.678;2023-07-20T07:53:26;6.03;;;2.45;;
24715;SDS011;12822;50.124;8.678;2023-07-20T07:55:52;3.80;;;2.20;;
24715;SDS011;12822;50.124;8.678;2023-07-20T07:58:18;7.43;;;2.28;;
24715;SDS011;12822;50.124;8.678;2023-07-20T08:00:44;5.40;;;2.20;;
24715;SDS011;12822;50.124;8.678;2023-07-20T08:03:10;8.43;;;1.85;;
24715;SDS011;12822;50.124;8.678;2023-07-20T08:05:36;5.97;;;2.25;;
24715;SDS011;12822;50.124;8.678;2023-07-20T08:08:02;5.20;;;1.80;;
24715;SDS011;12822;50.124;8.678;2023-07-20T08:10:29;7.47;;;1.90;;
24715;SDS011;12822;50.124;8.678;2023-07-20T08:12:55;5.30;;;2.20;;
24715;SDS011;12822;50.124;8.678;2023-07-20T08:15:21;5.53;;;2.03;;
24715;SDS011;12822;50.124;8.678;2023-07-20T08:17:47;4.68;;;2.08;;
24715;SDS011;12822;50.124;8.678;2023-07-20T08:20:14;5.05;;;2.00;;
24715;SDS011;12822;50.124;8.678;2023-07-20T08:22:42;4.38;;;1.92;;
24715;SDS011;12822;50.124;8.678;2023-07-20T08:25:08;6.53;;;2.10;;
24715;SDS011;12822;50.124;8.678;2023-07-20T08:27:35;6.40;;;2.55;;
24715;SDS011;12822;50.124;8.678;2023-07-20T08:30:01;7.45;;;3.75;;
24715;SDS011;12822;50.124;8.678;2023-07-20T08:32:27;8.85;;;2.80;;
24715;SDS011;12822;50.124;8.678;2023-07-20T08:34:53;6.45;;;3.47;;
24715;SDS011;12822;50.124;8.678;2023-07-20T08:37:19;7.25;;;2.60;;
24715;SDS011;12822;50.124;8.678;2023-07-20T08:39:45;3.85;;;2.00;;
24715;SDS011;12822;50.124;8.678;2023-07-20T08:42:11;3.38;;;1.77;;
24715;SDS011;12822;50.124;8.678;2023-07-20T08:44:38;5.90;;;1.80;;
24715;SDS011;12822;50.124;8.678;2023-07-20T08:47:05;2.83;;;1.83;;
24715;SDS011;12822;50.124;8.678;2023-07-20T08:49:32;4.70;;;2.20;;
24715;SDS011;12822;50.124;8.678;2023-07-20T08:51:58;3.88;;;1.88;;
24715;SDS011;12822;50.124;8.678;2023-07-20T08:54:26;10.07;;;2.30;;
24715;SDS011;12822;50.124;8.678;2023-07-20T08:56:54;5.13;;;2.25;;
24715;SDS011;12822;50.124;8.678;2023-07-20T08:59:22;7.53;;;2.17;;
24715;SDS011;12822;50.124;8.678;2023-07-20T09:01:49;4.90;;;2.22;;
24715;SDS011;12822;50.124;8.678;2023-07-20T09:04:16;5.78;;;2.00;;
24715;SDS011;12822;50.124;8.678;2023-07-20T09:06:42;5.82;;;2.38;;
24715;SDS011;12822;50.124;8.678;2023-07-20T09:09:08;4.40;;;2.20;;
24715;SDS011;12822;50.124;8.678;2023-07-20T09:11:36;5.25;;;1.92;;
24715;SDS011;12822;50.124;8.678;2023-07-20T09:14:05;5.88;;;2.13;;
24715;SDS011;12822;50.124;8.678;2023-07-20T09:16:31;3.90;;;1.92;;
24715;SDS011;12822;50.124;8.678;2023-07-20T09:18:57;4.90;;;1.90;;
24715;SDS011;12822;50.124;8.678;2023-07-20T09:21:23;7.22;;;2.53;;
24715;SDS011;12822;50.124;8.678;2023-07-20T09:23:56;5.30;;;2.97;;
24715;SDS011;12822;50.124;8.678;2023-07-20T09:26:22;3.40;;;1.80;;
24715;SDS011;12822;50.124;8.678;2023-07-20T09:28:49;4.45;;;3.03;;
24715;SDS011;12822;50.124;8.678;2023-07-20T09:31:19;9.00;;;5.45;;
24715;SDS011;12822;50.124;8.678;2023-07-20T09:33:46;9.57;;;5.60;;
24715;SDS011;12822;50.124;8.678;2023-07-20T09:36:12;4.45;;;2.47;;
24715;SDS011;12822;50.124;8.678;2023-07-20T09:38:40;7.10;;;2.03;;
24715;SDS011;12822;50.124;8.678;2023-07-20T09:41:07;4.75;;;2.30;;
24715;SDS011;12822;50.124;8.678;2023-07-20T09:43:33;6.45;;;2.35;;
24715;SDS011;12822;50.124;8.678;2023-07-20T09:45:59;4.85;;;2.22;;
24715;SDS011;12822;50.124;8.678;2023-07-20T09:48:26;6.13;;;1.90;;
24715;SDS011;12822;50.124;8.678;2023-07-20T09:50:53;3.17;;;1.70;;
24715;SDS011;12822;50.124;8.678;2023-07-20T09:53:19;3.15;;;1.90;;
24715;SDS011;12822;50.124;8.678;2023-07-20T09:55:46;5.85;;;2.30;;
24715;SDS011;12822;50.124;8.678;2023-07-20T09:58:12;6.00;;;2.15;;
24715;SDS011;12822;50.124;8.678;2023-07-20T10:00:39;4.68;;;2.20;;
24715;SDS011;12822;50.124;8.678;2023-07-20T10:03:06;5.28;;;2.63;;
24715;SDS011;12822;50.124;8.678;2023-07-20T10:05:32;6.15;;;2.53;;
24715;SDS011;12822;50.124;8.678;2023-07-20T10:08:00;4.50;;;2.15;;
24715;SDS011;12822;50.124;8.678;2023-07-20T10:10:27;6.13;;;1.92;;
24715;SDS011;12822;50.124;8.678;2023-07-20T10:12:53;6.88;;;1.90;;
24715;SDS011;12822;50.124;8.678;2023-07-20T10:15:24;4.07;;;2.03;;
24715;SDS011;12822;50.124;8.678;2023-07-20T10:17:57;3.80;;;1.83;;
24715;SDS011;12822;50.124;8.678;2023-07-20T10:20:25;3.15;;;1.70;;
24715;SDS011;12822;50.124;8.678;2023-07-20T10:22:53;3.63;;;2.10;;
24715;SDS011;12822;50.124;8.678;2023-07-20T10:25:20;4.53;;;1.75;;
24715;SDS011;12822;50.124;8.678;2023-07-20T10:27:48;6.30;;;1.80;;
24715;SDS011;12822;50.124;8.678;2023-07-20T10:30:14;3.22;;;1.90;;
24715;SDS011;12822;50.124;8.678;2023-07-20T10:32:40;2.63;;;1.60;;
24715;SDS011;12822;50.124;8.678;2023-07-20T10:35:14;4.47;;;1.90;;
24715;SDS011;12822;50.124;8.678;2023-07-20T10:37:53;3.05;;;1.73;;
24715;SDS011;12822;50.124;8.678;2023-07-20T10:42:55;9.43;;;3.83;;
24715;SDS011;12822;50.124;8.678;2023-07-20T10:45:32;17.75;;;5.10;;
24715;SDS011;12822;50.124;8.678;2023-07-20T10:48:20;39.70;;;10.98;;
24715;SDS011;12822;50.124;8.678;2023-07-20T10:53:32;5.50;;;2.92;;
24715;SDS011;12822;50.124;8.678;2023-07-20T10:58:33;12.27;;;3.13;;
24715;SDS011;12822;50.124;8.678;2023-07-20T11:01:00;9.30;;;3.00;;
24715;SDS011;12822;50.124;8.678;2023-07-20T11:03:27;9.02;;;3.33;;
24715;SDS011;12822;50.124;8.678;2023-07-20T11:05:54;11.60;;;3.92;;
24715;SDS011;12822;50.124;8.678;2023-07-20T11:08:37;6.75;;;2.38;;
24715;SDS011;12822;50.124;8.678;2023-07-20T11:16:31;5.00;;;2.13;;
24715;SDS011;12822;50.124;8.678;2023-07-20T11:18:57;3.30;;;1.52;;
24715;SDS011;12822;50.124;8.678;2023-07-20T11:21:23;3.75;;;1.70;;
24715;SDS011;12822;50.124;8.678;2023-07-20T11:23:50;4.45;;;1.70;;
24715;SDS011;12822;50.124;8.678;2023-07-20T11:26:17;5.03;;;2.20;;
24715;SDS011;12822;50.124;8.678;2023-07-20T11:28:48;5.68;;;1.85;;
24715;SDS011;12822;50.124;8.678;2023-07-20T11:31:14;6.63;;;1.90;;
24715;SDS011;12822;50.124;8.678;2023-07-20T11:33:44;5.90;;;1.92;;
24715;SDS011;12822;50.124;8.678;2023-07-20T11:36:11;5.87;;;2.00;;
24715;SDS011;12822;50.124;8.678;2023-07-20T11:38:38;3.88;;;1.98;;
24715;SDS011;12822;50.124;8.678;2023-07-20T11:41:05;4.60;;;1.80;;
24715;SDS011;12822;50.124;8.678;2023-07-20T11:43:34;3.05;;;1.90;;
24715;SDS011;12822;50.124;8.678;2023-07-20T11:46:03;5.28;;;2.15;;
24715;SDS011;12822;50.124;8.678;2023-07-20T11:48:30;3.80;;;1.95;;
24715;SDS011;12822;50.124;8.678;2023-07-20T11:50:56;5.68;;;1.98;;
24715;SDS011;12822;50.124;8.678;2023-07-20T11:53:22;5.88;;;1.98;;
24715;SDS011;12822;50.124;8.678;2023-07-20T11:55:50;4.35;;;1.83;;
24715;SDS011;12822;50.124;8.678;2023-07-20T11:58:16;5.75;;;2.10;;
24715;SDS011;12822;50.124;8.678;2023-07-20T12:00:44;4.72;;;1.90;;
24715;SDS011;12822;50.124;8.678;2023-07-20T12:03:13;2.80;;;1.73;;
24715;SDS011;12822;50.124;8.678;2023-07-20T12:05:39;3.80;;;1.67;;
24715;SDS011;12822;50.124;8.678;2023-07-20T12:08:06;5.13;;;2.25;;
24715;SDS011;12822;50.124;8.678;2023-07-20T12:10:38;2.78;;;1.58;;
24715;SDS011;12822;50.124;8.678;2023-07-20T12:13:16;8.05;;;2.45;;
24715;SDS011;12822;50.124;8.678;2023-07-20T12:15:49;7.20;;;2.00;;
24715;SDS011;12822;50.124;8.678;2023-07-20T12:18:15;5.47;;;1.95;;
24715;SDS011;12822;50.124;8.678;2023-07-20T12:20:41;6.45;;;1.88;;
24715;SDS011;12822;50.124;8.678;2023-07-20T12:23:11;5.50;;;1.70;;
24715;SDS011;12822;50.124;8.678;2023-07-20T12:25:41;4.75;;;2.08;;
24715;SDS011;12822;50.124;8.678;2023-07-20T12:28:14;3.15;;;1.80;;
24715;SDS011;12822;50.124;8.678;2023-07-20T12:30:41;3.65;;;1.70;;
24715;SDS011;12822;50.124;8.678;2023-07-20T12:33:07;3.15;;;1.65;;
24715;SDS011;12822;50.124;8.678;2023-07-20T12:35:33;5.07;;;1.70;;
24715;SDS011;12822;50.124;8.678;2023-07-20T12:38:00;3.45;;;1.73;;
24715;SDS011;12822;50.124;8.678;2023-07-20T12:40:26;3.47;;;1.60;;
24715;SDS011;12822;50.124;8.678;2023-07-20T12:42:52;4.40;;;1.55;;
24715;SDS011;12822;50.124;8.678;2023-07-20T12:45:18;5.78;;;1.98;;
24715;SDS011;12822;50.124;8.678;2023-07-20T12:47:44;3.75;;;1.73;;
24715;SDS011;12822;50.124;8.678;2023-07-20T12:50:10;6.53;;;2.10;;
24715;SDS011;12822;50.124;8.678;2023-07-20T12:52:37;7.72;;;1.90;;
24715;SDS011;12822;50.124;8.678;2023-07-20T12:55:04;3.65;;;1.60;;
24715;SDS011;12822;50.124;8.678;2023-07-20T12:57:36;6.00;;;1.48;;
24715;SDS011;12822;50.124;8.678;2023-07-20T13:00:03;9.15;;;2.00;;
24715;SDS011;12822;50.124;8.678;2023-07-20T13:02:32;1.58;;;1.33;;
24715;SDS011;12822;50.124;8.678;2023-07-20T13:04:58;4.38;;;1.40;;
24715;SDS011;12822;50.124;8.678;2023-07-20T13:07:31;4.07;;;1.95;;
24715;SDS011;12822;50.124;8.678;2023-07-20T13:10:00;6.60;;;1.77;;
24715;SDS011;12822;50.124;8.678;2023-07-20T13:12:27;4.70;;;1.75;;
24715;SDS011;12822;50.124;8.678;2023-07-20T13:14:54;5.50;;;1.55;;
24715;SDS011;12822;50.124;8.678;2023-07-20T13:17:20;4.85;;;1.60;;
24715;SDS011;12822;50.124;8.678;2023-07-20T13:19:46;3.80;;;1.65;;
24715;SDS011;12822;50.124;8.678;2023-07-20T13:22:13;4.10;;;1.40;;
24715;SDS011;12822;50.124;8.678;2023-07-20T13:24:39;2.97;;;1.45;;
24715;SDS011;12822;50.124;8.678;2023-07-20T13:27:05;7.45;;;1.55;;
24715;SDS011;12822;50.124;8.678;2023-07-20T13:29:32;3.38;;;1.23;;
24715;SDS011;12822;50.124;8.678;2023-07-20T13:31:58;2.90;;;1.20;;
24715;SDS011;12822;50.124;8.678;2023-07-20T13:34:25;3.65;;;1.60;;
24715;SDS011;12822;50.124;8.678;2023-07-20T13:36:51;4.15;;;1.33;;
24715;SDS011;12822;50.124;8.678;2023-07-20T13:39:17;6.45;;;1.50;;
24715;SDS011;12822;50.124;8.678;2023-07-20T13:41:44;2.83;;;1.38;;
24715;SDS011;12822;50.124;8.678;2023-07-20T13:44:10;3.22;;;1.27;;
24715;SDS011;12822;50.124;8.678;2023-07-20T13:46:37;3.15;;;1.48;;
24715;SDS011;12822;50.124;8.678;2023-07-20T13:49:04;1.60;;;1.00;;
24715;SDS011;12822;50.124;8.678;2023-07-20T13:51:30;2.92;;;1.33;;
24715;SDS011;12822;50.124;8.678;2023-07-20T13:53:56;3.28;;;1.30;;
24715;SDS011;12822;50.124;8.678;2023-07-20T13:56:23;4.43;;;1.40;;
24715;SDS011;12822;50.124;8.678;2023-07-20T13:58:49;5.22;;;1.33;;
24715;SDS011;12822;50.124;8.678;2023-07-20T14:01:16;3.80;;;1.38;;
24715;SDS011;12822;50.124;8.678;2023-07-20T14:03:43;3.15;;;1.20;;
24715;SDS011;12822;50.124;8.678;2023-07-20T14:06:09;6.38;;;1.00;;
24715;SDS011;12822;50.124;8.678;2023-07-20T14:08:36;5.18;;;1.58;;
24715;SDS011;12822;50.124;8.678;2023-07-20T14:11:02;3.53;;;1.33;;
24715;SDS011;12822;50.124;8.678;2023-07-20T14:13:28;4.13;;;1.50;;
24715;SDS011;12822;50.124;8.678;2023-07-20T14:15:54;3.75;;;1.40;;
24715;SDS011;12822;50.124;8.678;2023-07-20T14:18:20;2.83;;;1.45;;
24715;SDS011;12822;50.124;8.678;2023-07-20T14:20:46;1.88;;;1.25;;
24715;SDS011;12822;50.124;8.678;2023-07-20T14:23:12;4.40;;;1.40;;
24715;SDS011;12822;50.124;8.678;2023-07-20T14:25:38;2.88;;;1.58;;
24715;SDS011;12822;50.124;8.678;2023-07-20T14:28:04;4.35;;;1.50;;
24715;SDS011;12822;50.124;8.678;2023-07-20T14:30:30;3.30;;;1.30;;
24715;SDS011;12822;50.124;8.678;2023-07-20T14:32:56;3.10;;;1.42;;
24715;SDS011;12822;50.124;8.678;2023-07-20T14:35:22;2.55;;;1.52;;
24715;SDS011;12822;50.124;8.678;2023-07-20T14:37:48;2.78;;;1.40;;
24715;SDS011;12822;50.124;8.678;2023-07-20T14:40:15;2.08;;;1.40;;
24715;SDS011;12822;50.124;8.678;2023-07-20T14:42:41;5.15;;;1.50;;
24715;SDS011;12822;50.124;8.678;2023-07-20T14:45:07;4.82;;;1.48;;
24715;SDS011;12822;50.124;8.678;2023-07-20T14:47:33;2.97;;;1.55;;
24715;SDS011;12822;50.124;8.678;2023-07-20T14:50:03;1.90;;;1.40;;
24715;SDS011;12822;50.124;8.678;2023-07-20T14:52:29;3.03;;;1.45;;
24715;SDS011;12822;50.124;8.678;2023-07-20T14:54:55;5.65;;;1.38;;
24715;SDS011;12822;50.124;8.678;2023-07-20T14:57:21;3.03;;;1.38;;
24715;SDS011;12822;50.124;8.678;2023-07-20T14:59:51;2.00;;;0.98;;
24715;SDS011;12822;50.124;8.678;2023-07-20T15:02:17;5.95;;;1.50;;
24715;SDS011;12822;50.124;8.678;2023-07-20T15:04:49;2.05;;;1.30;;
24715;SDS011;12822;50.124;8.678;2023-07-20T15:07:16;2.47;;;1.27;;